sensor_id;sensor_type;location;lat;lon;timestamp;pressure;altitude;pressure_sealevel;temperature;humidity
70314;BME280;57725;47.526;18.986;2022-12-07T00:01:08;99723.88;;;6.58;93.98
70314;BME280;57725;47.526;18.986;2022-12-07T00:03:34;99724.75;;;6.59;93.77
70314;BME280;57725;47.526;18.986;2022-12-07T00:06:01;99724.81;;;6.57;93.74
70314;BME280;57725;47.526;18.986;2022-12-07T00:08:27;99715.28;;;6.58;93.88
70314;BME280;57725;47.526;18.986;2022-12-07T00:10:55;99714.34;;;6.59;94.15
70314;BME280;57725;47.526;18.986;2022-12-07T00:13:23;99710.91;;;6.58;93.71
70314;BME280;57725;47.526;18.986;2022-12-07T00:15:48;99705.72;;;6.58;93.97
70314;BME280;57725;47.526;18.986;2022-12-07T00:18:13;99701.44;;;6.57;94.25
70314;BME280;57725;47.526;18.986;2022-12-07T00:20:38;99692.88;;;6.53;93.81
70314;BME280;57725;47.526;18.986;2022-12-07T00:23:04;99700.59;;;6.57;93.92
70314;BME280;57725;47.526;18.986;2022-12-07T00:25:30;99700.66;;;6.53;93.77
70314;BME280;57725;47.526;18.986;2022-12-07T00:27:58;99698.97;;;6.52;93.75
70314;BME280;57725;47.526;18.986;2022-12-07T00:30:23;99698.00;;;6.57;94.01
70314;BME280;57725;47.526;18.986;2022-12-07T00:32:49;99700.63;;;6.55;93.64
70314;BME280;57725;47.526;18.986;2022-12-07T00:35:14;99702.38;;;6.54;93.93
70314;BME280;57725;47.526;18.986;2022-12-07T00:37:40;99692.03;;;6.53;94.04
70314;BME280;57725;47.526;18.986;2022-12-07T00:40:06;99695.44;;;6.55;93.31
70314;BME280;57725;47.526;18.986;2022-12-07T00:42:31;99692.84;;;6.55;93.70
70314;BME280;57725;47.526;18.986;2022-12-07T00:44:56;99702.38;;;6.54;93.61
70314;BME280;57725;47.526;18.986;2022-12-07T00:47:22;99700.63;;;6.55;93.95
70314;BME280;57725;47.526;18.986;2022-12-07T00:49:50;99696.38;;;6.52;93.83
70314;BME280;57725;47.526;18.986;2022-12-07T00:52:15;99700.66;;;6.53;94.08
70314;BME280;57725;47.526;18.986;2022-12-07T00:54:41;99694.63;;;6.53;93.55
70314;BME280;57725;47.526;18.986;2022-12-07T00:57:06;99690.31;;;6.52;93.89
70314;BME280;57725;47.526;18.986;2022-12-07T00:59:31;99681.75;;;6.48;93.87
70314;BME280;57725;47.526;18.986;2022-12-07T01:01:57;99681.69;;;6.51;93.58
70314;BME280;57725;47.526;18.986;2022-12-07T01:04:22;99682.53;;;6.52;93.80
70314;BME280;57725;47.526;18.986;2022-12-07T01:06:48;99680.81;;;6.51;93.68
70314;BME280;57725;47.526;18.986;2022-12-07T01:09:13;99680.00;;;6.49;93.67
70314;BME280;57725;47.526;18.986;2022-12-07T01:11:39;99688.63;;;6.51;93.69
70314;BME280;57725;47.526;18.986;2022-12-07T01:14:04;99692.97;;;6.50;93.33
70314;BME280;57725;47.526;18.986;2022-12-07T01:16:31;99691.22;;;6.51;93.80
70314;BME280;57725;47.526;18.986;2022-12-07T01:18:58;99693.81;;;6.51;94.01
70314;BME280;57725;47.526;18.986;2022-12-07T01:21:29;99690.41;;;6.49;93.35
70314;BME280;57725;47.526;18.986;2022-12-07T01:24:00;99692.97;;;6.50;93.90
70314;BME280;57725;47.526;18.986;2022-12-07T01:26:26;99687.81;;;6.49;93.45
70314;BME280;57725;47.526;18.986;2022-12-07T01:28:52;99683.47;;;6.49;93.81
70314;BME280;57725;47.526;18.986;2022-12-07T01:31:21;99678.28;;;6.49;93.81
70314;BME280;57725;47.526;18.986;2022-12-07T01:33:50;99681.75;;;6.48;93.77
70314;BME280;57725;47.526;18.986;2022-12-07T01:36:31;99684.34;;;6.48;93.36
70314;BME280;57725;47.526;18.986;2022-12-07T01:39:01;99681.75;;;6.48;93.41
70314;BME280;57725;47.526;18.986;2022-12-07T01:41:32;99679.19;;;6.47;93.73
70314;BME280;57725;47.526;18.986;2022-12-07T01:46:43;99680.94;;;6.46;93.78
70314;BME280;57725;47.526;18.986;2022-12-07T01:49:25;99670.63;;;6.45;93.16
70314;BME280;57725;47.526;18.986;2022-12-07T01:52:07;99676.69;;;6.45;93.36
70314;BME280;57725;47.526;18.986;2022-12-07T01:54:35;99673.22;;;6.45;93.96
70314;BME280;57725;47.526;18.986;2022-12-07T01:57:04;99667.19;;;6.44;93.50
70314;BME280;57725;47.526;18.986;2022-12-07T01:59:31;99662.00;;;6.44;93.24
70314;BME280;57725;47.526;18.986;2022-12-07T02:01:57;99662.88;;;6.43;93.76
70314;BME280;57725;47.526;18.986;2022-12-07T02:04:23;99668.94;;;6.44;93.48
70314;BME280;57725;47.526;18.986;2022-12-07T02:06:48;99668.06;;;6.43;93.23
70314;BME280;57725;47.526;18.986;2022-12-07T02:09:15;99662.03;;;6.43;93.74
70314;BME280;57725;47.526;18.986;2022-12-07T02:11:40;99664.59;;;6.44;93.64
70314;BME280;57725;47.526;18.986;2022-12-07T02:14:06;99658.56;;;6.42;94.00
70314;BME280;57725;47.526;18.986;2022-12-07T02:22:04;99656.03;;;6.41;93.16
70314;BME280;57725;47.526;18.986;2022-12-07T02:24:58;99658.56;;;6.42;93.43
70314;BME280;57725;47.526;18.986;2022-12-07T02:27:43;99660.38;;;6.40;93.53
70314;BME280;57725;47.526;18.986;2022-12-07T02:30:19;99659.44;;;6.43;93.67
70314;BME280;57725;47.526;18.986;2022-12-07T02:32:51;99655.13;;;6.42;93.71
70314;BME280;57725;47.526;18.986;2022-12-07T02:35:39;99651.69;;;6.41;93.93
70314;BME280;57725;47.526;18.986;2022-12-07T02:38:20;99658.63;;;6.41;94.00
70314;BME280;57725;47.526;18.986;2022-12-07T02:41:06;99656.03;;;6.41;93.72
70314;BME280;57725;47.526;18.986;2022-12-07T02:43:38;99652.66;;;6.37;93.52
70314;BME280;57725;47.526;18.986;2022-12-07T02:46:14;99660.38;;;6.40;93.39
70314;BME280;57725;47.526;18.986;2022-12-07T02:48:41;99646.53;;;6.40;93.61
70314;BME280;57725;47.526;18.986;2022-12-07T02:51:08;99656.06;;;6.39;94.06
70314;BME280;57725;47.526;18.986;2022-12-07T02:53:39;99648.31;;;6.38;93.63
70314;BME280;57725;47.526;18.986;2022-12-07T02:56:13;99650.03;;;6.39;93.67
70314;BME280;57725;47.526;18.986;2022-12-07T03:03:41;99645.72;;;6.38;93.32
70314;BME280;57725;47.526;18.986;2022-12-07T03:06:20;99642.31;;;6.36;93.78
70314;BME280;57725;47.526;18.986;2022-12-07T03:08:56;99641.47;;;6.35;93.69
70314;BME280;57725;47.526;18.986;2022-12-07T03:11:36;99631.03;;;6.37;93.67
70314;BME280;57725;47.526;18.986;2022-12-07T03:14:21;99637.94;;;6.38;94.18
70314;BME280;57725;47.526;18.986;2022-12-07T03:16:58;99633.63;;;6.37;93.67
70314;BME280;57725;47.526;18.986;2022-12-07T03:19:27;99635.34;;;6.38;94.26
70314;BME280;57725;47.526;18.986;2022-12-07T03:21:59;99625.00;;;6.36;93.53
70314;BME280;57725;47.526;18.986;2022-12-07T03:24:56;99629.28;;;6.37;94.22
70314;BME280;57725;47.526;18.986;2022-12-07T03:27:35;99629.31;;;6.36;94.13
70314;BME280;57725;47.526;18.986;2022-12-07T03:30:05;99637.06;;;6.37;93.96
70314;BME280;57725;47.526;18.986;2022-12-07T03:35:14;99638.09;;;6.33;93.95
70314;BME280;57725;47.526;18.986;2022-12-07T03:37:59;99649.22;;;6.37;94.12
70314;BME280;57725;47.526;18.986;2022-12-07T03:40:39;99640.56;;;6.36;94.09
70314;BME280;57725;47.526;18.986;2022-12-07T03:43:06;99645.91;;;6.32;94.12
70314;BME280;57725;47.526;18.986;2022-12-07T03:45:44;99650.22;;;6.33;93.82
70314;BME280;57725;47.526;18.986;2022-12-07T03:50:56;99660.47;;;6.36;93.77
70314;BME280;57725;47.526;18.986;2022-12-07T03:53:47;99660.59;;;6.33;93.73
70314;BME280;57725;47.526;18.986;2022-12-07T03:56:17;99667.44;;;6.35;94.25
70314;BME280;57725;47.526;18.986;2022-12-07T03:58:43;99662.31;;;6.34;93.88
70314;BME280;57725;47.526;18.986;2022-12-07T04:01:09;99663.97;;;6.35;93.52
70314;BME280;57725;47.526;18.986;2022-12-07T04:03:35;99661.38;;;6.35;93.79
70314;BME280;57725;47.526;18.986;2022-12-07T04:06:00;99651.22;;;6.27;94.23
70314;BME280;57725;47.526;18.986;2022-12-07T04:08:26;99658.84;;;6.33;93.61
70314;BME280;57725;47.526;18.986;2022-12-07T04:10:54;99661.44;;;6.33;93.65
70314;BME280;57725;47.526;18.986;2022-12-07T04:13:19;99663.16;;;6.34;94.08
70314;BME280;57725;47.526;18.986;2022-12-07T04:15:44;99665.78;;;6.33;93.85
70314;BME280;57725;47.526;18.986;2022-12-07T04:18:10;99667.50;;;6.34;93.99
70314;BME280;57725;47.526;18.986;2022-12-07T04:20:35;99664.94;;;6.32;93.57
70314;BME280;57725;47.526;18.986;2022-12-07T04:23:00;99673.53;;;6.34;93.63
70314;BME280;57725;47.526;18.986;2022-12-07T04:25:26;99670.09;;;6.34;93.81
70314;BME280;57725;47.526;18.986;2022-12-07T04:27:51;99668.44;;;6.31;93.60
70314;BME280;57725;47.526;18.986;2022-12-07T04:30:23;99667.53;;;6.32;93.90
70314;BME280;57725;47.526;18.986;2022-12-07T04:32:48;99667.63;;;6.29;94.20
70314;BME280;57725;47.526;18.986;2022-12-07T04:35:14;99664.13;;;6.30;93.91
70314;BME280;57725;47.526;18.986;2022-12-07T04:37:39;99668.38;;;6.33;93.88
70314;BME280;57725;47.526;18.986;2022-12-07T04:40:07;99655.50;;;6.30;93.89
70314;BME280;57725;47.526;18.986;2022-12-07T04:42:36;99658.09;;;6.30;93.75
70314;BME280;57725;47.526;18.986;2022-12-07T04:45:02;99665.00;;;6.29;93.76
70314;BME280;57725;47.526;18.986;2022-12-07T04:47:27;99670.16;;;6.31;94.04
70314;BME280;57725;47.526;18.986;2022-12-07T04:49:53;99679.63;;;6.33;93.58
70314;BME280;57725;47.526;18.986;2022-12-07T04:52:18;99670.13;;;6.32;94.04
70314;BME280;57725;47.526;18.986;2022-12-07T04:54:43;99674.50;;;6.30;93.91
70314;BME280;57725;47.526;18.986;2022-12-07T04:57:09;99658.19;;;6.25;93.93
70314;BME280;57725;47.526;18.986;2022-12-07T04:59:34;99666.69;;;6.32;93.93
70314;BME280;57725;47.526;18.986;2022-12-07T05:01:59;99665.84;;;6.31;93.66
70314;BME280;57725;47.526;18.986;2022-12-07T05:04:25;99666.69;;;6.32;93.88
70314;BME280;57725;47.526;18.986;2022-12-07T05:06:50;99656.28;;;6.32;93.95
70314;BME280;57725;47.526;18.986;2022-12-07T05:09:15;99650.25;;;6.31;94.01
70314;BME280;57725;47.526;18.986;2022-12-07T05:11:41;99651.09;;;6.32;93.96
70314;BME280;57725;47.526;18.986;2022-12-07T05:14:11;99643.31;;;6.32;93.78
70314;BME280;57725;47.526;18.986;2022-12-07T05:16:37;99642.50;;;6.30;93.82
70314;BME280;57725;47.526;18.986;2022-12-07T05:19:04;99643.34;;;6.30;94.37
70314;BME280;57725;47.526;18.986;2022-12-07T05:21:29;99638.19;;;6.29;93.75
70314;BME280;57725;47.526;18.986;2022-12-07T05:23:57;99642.50;;;6.30;94.03
70314;BME280;57725;47.526;18.986;2022-12-07T05:26:25;99646.84;;;6.29;93.99
70314;BME280;57725;47.526;18.986;2022-12-07T05:28:52;99638.16;;;6.30;93.80
70314;BME280;57725;47.526;18.986;2022-12-07T05:31:17;99647.66;;;6.31;93.54
70314;BME280;57725;47.526;18.986;2022-12-07T05:33:43;99643.34;;;6.30;93.64
70314;BME280;57725;47.526;18.986;2022-12-07T05:36:08;99643.41;;;6.29;93.50
70314;BME280;57725;47.526;18.986;2022-12-07T05:38:34;99646.81;;;6.31;94.22
70314;BME280;57725;47.526;18.986;2022-12-07T05:41:04;99651.16;;;6.30;94.33
70314;BME280;57725;47.526;18.986;2022-12-07T05:43:32;99639.94;;;6.28;94.24
70314;BME280;57725;47.526;18.986;2022-12-07T05:46:00;99647.69;;;6.30;94.19
70314;BME280;57725;47.526;18.986;2022-12-07T05:48:25;99640.81;;;6.29;94.07
70314;BME280;57725;47.526;18.986;2022-12-07T05:50:51;99648.59;;;6.29;94.34
70314;BME280;57725;47.526;18.986;2022-12-07T05:53:17;99639.94;;;6.28;93.66
70314;BME280;57725;47.526;18.986;2022-12-07T05:55:43;99649.41;;;6.31;93.99
70314;BME280;57725;47.526;18.986;2022-12-07T05:58:11;99652.88;;;6.30;93.57
70314;BME280;57725;47.526;18.986;2022-12-07T06:00:55;99656.34;;;6.30;93.88
70314;BME280;57725;47.526;18.986;2022-12-07T06:03:21;99652.88;;;6.30;93.60
70314;BME280;57725;47.526;18.986;2022-12-07T06:05:47;99656.38;;;6.29;94.22
70314;BME280;57725;47.526;18.986;2022-12-07T06:08:14;99651.19;;;6.29;93.94
70314;BME280;57725;47.526;18.986;2022-12-07T06:10:40;99655.50;;;6.30;93.63
70314;BME280;57725;47.526;18.986;2022-12-07T06:13:07;99650.34;;;6.28;93.73
70314;BME280;57725;47.526;18.986;2022-12-07T06:15:32;99656.41;;;6.27;94.36
70314;BME280;57725;47.526;18.986;2022-12-07T06:18:00;99657.28;;;6.28;93.86
70314;BME280;57725;47.526;18.986;2022-12-07T06:20:25;99658.97;;;6.29;93.67
70314;BME280;57725;47.526;18.986;2022-12-07T06:22:50;99659.81;;;6.29;93.94
70314;BME280;57725;47.526;18.986;2022-12-07T06:25:16;99656.47;;;6.26;93.97
70314;BME280;57725;47.526;18.986;2022-12-07T06:27:43;99653.78;;;6.29;94.15
70314;BME280;57725;47.526;18.986;2022-12-07T06:30:09;99645.22;;;6.25;93.87
70314;BME280;57725;47.526;18.986;2022-12-07T06:32:36;99663.31;;;6.28;94.11
70314;BME280;57725;47.526;18.986;2022-12-07T06:35:02;99655.53;;;6.28;93.55
70314;BME280;57725;47.526;18.986;2022-12-07T06:37:27;99653.00;;;6.25;94.03
70314;BME280;57725;47.526;18.986;2022-12-07T06:39:52;99669.41;;;6.27;93.58
70314;BME280;57725;47.526;18.986;2022-12-07T06:42:18;99672.84;;;6.28;94.41
70314;BME280;57725;47.526;18.986;2022-12-07T06:44:43;99665.91;;;6.28;94.39
70314;BME280;57725;47.526;18.986;2022-12-07T06:47:08;99667.66;;;6.28;93.78
70314;BME280;57725;47.526;18.986;2022-12-07T06:49:34;99672.84;;;6.28;93.62
70314;BME280;57725;47.526;18.986;2022-12-07T06:52:00;99670.25;;;6.28;94.09
70314;BME280;57725;47.526;18.986;2022-12-07T06:54:25;99674.59;;;6.27;93.91
70314;BME280;57725;47.526;18.986;2022-12-07T06:56:53;99662.69;;;6.20;93.58
70314;BME280;57725;47.526;18.986;2022-12-07T06:59:18;99665.91;;;6.28;94.32
70314;BME280;57725;47.526;18.986;2022-12-07T07:01:43;99668.53;;;6.27;94.29
70314;BME280;57725;47.526;18.986;2022-12-07T07:04:09;99673.75;;;6.27;94.34
70314;BME280;57725;47.526;18.986;2022-12-07T07:06:34;99675.44;;;6.28;94.14
70314;BME280;57725;47.526;18.986;2022-12-07T07:08:59;99672.91;;;6.25;93.77
70314;BME280;57725;47.526;18.986;2022-12-07T07:11:25;99666.81;;;6.27;93.93
70314;BME280;57725;47.526;18.986;2022-12-07T07:13:50;99672.84;;;6.28;93.98
70314;BME280;57725;47.526;18.986;2022-12-07T07:16:15;99674.56;;;6.29;94.17
70314;BME280;57725;47.526;18.986;2022-12-07T07:18:43;99677.19;;;6.27;93.93
70314;BME280;57725;47.526;18.986;2022-12-07T07:21:08;99666.84;;;6.26;94.38
70314;BME280;57725;47.526;18.986;2022-12-07T07:23:36;99675.47;;;6.26;94.12
70314;BME280;57725;47.526;18.986;2022-12-07T07:26:02;99678.03;;;6.28;93.77
70314;BME280;57725;47.526;18.986;2022-12-07T07:28:27;99675.47;;;6.26;92.99
70314;BME280;57725;47.526;18.986;2022-12-07T07:30:52;99673.03;;;6.22;92.59
70314;BME280;57725;47.526;18.986;2022-12-07T07:33:18;99675.66;;;6.20;93.10
70314;BME280;57725;47.526;18.986;2022-12-07T07:35:43;99672.28;;;6.16;92.87
70314;BME280;57725;47.526;18.986;2022-12-07T07:38:11;99668.00;;;6.15;92.58
70314;BME280;57725;47.526;18.986;2022-12-07T07:40:36;99661.91;;;6.16;93.10
70314;BME280;57725;47.526;18.986;2022-12-07T07:43:04;99663.63;;;6.17;93.23
70314;BME280;57725;47.526;18.986;2022-12-07T07:45:30;99663.63;;;6.17;92.94
70314;BME280;57725;47.526;18.986;2022-12-07T07:47:55;99658.63;;;6.11;93.03
70314;BME280;57725;47.526;18.986;2022-12-07T07:50:20;99660.16;;;6.17;93.52
70314;BME280;57725;47.526;18.986;2022-12-07T07:52:46;99665.31;;;6.18;93.78
70314;BME280;57725;47.526;18.986;2022-12-07T07:55:12;99663.63;;;6.17;93.77
70314;BME280;57725;47.526;18.986;2022-12-07T07:57:38;99671.34;;;6.21;93.40
70314;BME280;57725;47.526;18.986;2022-12-07T08:00:08;99656.03;;;6.11;93.57
70314;BME280;57725;47.526;18.986;2022-12-07T08:02:36;99667.88;;;6.20;93.31
70314;BME280;57725;47.526;18.986;2022-12-07T08:05:02;99673.03;;;6.22;93.58
70314;BME280;57725;47.526;18.986;2022-12-07T08:07:27;99661.88;;;6.18;93.62
70314;BME280;57725;47.526;18.986;2022-12-07T08:09:53;99673.06;;;6.20;93.67
70314;BME280;57725;47.526;18.986;2022-12-07T08:12:18;99681.69;;;6.22;93.93
70314;BME280;57725;47.526;18.986;2022-12-07T08:14:43;99678.31;;;6.18;94.04
70314;BME280;57725;47.526;18.986;2022-12-07T08:17:09;99686.88;;;6.22;94.02
70314;BME280;57725;47.526;18.986;2022-12-07T08:19:34;99681.72;;;6.21;94.01
70314;BME280;57725;47.526;18.986;2022-12-07T08:22:00;99690.38;;;6.20;94.23
70314;BME280;57725;47.526;18.986;2022-12-07T08:24:25;99693.81;;;6.22;94.15
70314;BME280;57725;47.526;18.986;2022-12-07T08:26:50;99687.72;;;6.23;93.59
70314;BME280;57725;47.526;18.986;2022-12-07T08:29:16;99701.53;;;6.23;93.77
70314;BME280;57725;47.526;18.986;2022-12-07T08:31:48;99694.59;;;6.24;93.96
70314;BME280;57725;47.526;18.986;2022-12-07T08:34:14;99697.19;;;6.24;93.68
70314;BME280;57725;47.526;18.986;2022-12-07T08:36:39;99688.66;;;6.20;93.87
70314;BME280;57725;47.526;18.986;2022-12-07T08:39:05;99686.00;;;6.22;93.92
70314;BME280;57725;47.526;18.986;2022-12-07T08:41:31;99706.66;;;6.25;94.12
70314;BME280;57725;47.526;18.986;2022-12-07T08:43:57;99697.25;;;6.22;93.84
70314;BME280;57725;47.526;18.986;2022-12-07T08:46:38;99704.97;;;6.24;93.67
70314;BME280;57725;47.526;18.986;2022-12-07T08:49:12;99702.44;;;6.22;94.13
70314;BME280;57725;47.526;18.986;2022-12-07T08:51:39;99702.44;;;6.22;94.13
70314;BME280;57725;47.526;18.986;2022-12-07T08:54:09;99699.78;;;6.24;93.62
70314;BME280;57725;47.526;18.986;2022-12-07T08:56:36;99705.81;;;6.24;93.84
70314;BME280;57725;47.526;18.986;2022-12-07T08:59:01;99704.97;;;6.24;94.30
70314;BME280;57725;47.526;18.986;2022-12-07T09:01:28;99705.94;;;6.21;93.59
70314;BME280;57725;47.526;18.986;2022-12-07T09:03:53;99699.00;;;6.22;93.84
70314;BME280;57725;47.526;18.986;2022-12-07T09:06:19;99700.63;;;6.24;93.89
70314;BME280;57725;47.526;18.986;2022-12-07T09:08:47;99702.44;;;6.22;93.63
70314;BME280;57725;47.526;18.986;2022-12-07T09:11:15;99692.00;;;6.24;93.60
70314;BME280;57725;47.526;18.986;2022-12-07T09:13:40;99698.13;;;6.21;94.27
70314;BME280;57725;47.526;18.986;2022-12-07T09:16:06;99690.31;;;6.23;93.96
70314;BME280;57725;47.526;18.986;2022-12-07T09:18:31;99691.22;;;6.22;93.95
70314;BME280;57725;47.526;18.986;2022-12-07T09:20:57;99674.75;;;6.23;93.98
70314;BME280;57725;47.526;18.986;2022-12-07T09:23:22;99674.75;;;6.23;93.92
70314;BME280;57725;47.526;18.986;2022-12-07T09:25:48;99675.53;;;6.25;94.23
70314;BME280;57725;47.526;18.986;2022-12-07T09:28:16;99667.88;;;6.20;94.29
70314;BME280;57725;47.526;18.986;2022-12-07T09:30:48;99676.47;;;6.22;93.93
70314;BME280;57725;47.526;18.986;2022-12-07T09:33:14;99674.66;;;6.24;93.89
70314;BME280;57725;47.526;18.986;2022-12-07T09:35:50;99670.31;;;6.25;94.51
70314;BME280;57725;47.526;18.986;2022-12-07T09:38:17;99667.72;;;6.25;94.22
70314;BME280;57725;47.526;18.986;2022-12-07T09:40:43;99665.19;;;6.23;94.24
70314;BME280;57725;47.526;18.986;2022-12-07T09:43:23;99663.50;;;6.22;93.95
70314;BME280;57725;47.526;18.986;2022-12-07T09:45:51;99665.13;;;6.25;94.10
70314;BME280;57725;47.526;18.986;2022-12-07T09:48:21;99666.03;;;6.24;94.22
70314;BME280;57725;47.526;18.986;2022-12-07T09:50:48;99659.94;;;6.25;93.96
70314;BME280;57725;47.526;18.986;2022-12-07T09:53:24;99656.50;;;6.24;93.77
70314;BME280;57725;47.526;18.986;2022-12-07T09:55:50;99657.34;;;6.25;93.98
70314;BME280;57725;47.526;18.986;2022-12-07T09:58:27;99656.50;;;6.24;93.97
70314;BME280;57725;47.526;18.986;2022-12-07T10:01:20;99650.41;;;6.25;94.13
70314;BME280;57725;47.526;18.986;2022-12-07T10:03:58;99655.66;;;6.24;94.38
70314;BME280;57725;47.526;18.986;2022-12-07T10:06:24;99658.25;;;6.24;94.12
70314;BME280;57725;47.526;18.986;2022-12-07T10:08:49;99656.56;;;6.23;93.86
70314;BME280;57725;47.526;18.986;2022-12-07T10:11:15;99657.34;;;6.25;93.64
70314;BME280;57725;47.526;18.986;2022-12-07T10:13:47;99659.06;;;6.26;94.22
70314;BME280;57725;47.526;18.986;2022-12-07T10:18:54;99654.72;;;6.26;94.28
70314;BME280;57725;47.526;18.986;2022-12-07T10:21:25;99646.97;;;6.25;93.93
70314;BME280;57725;47.526;18.986;2022-12-07T10:31:40;99643.50;;;6.24;94.09
70314;BME280;57725;47.526;18.986;2022-12-07T10:34:24;99637.44;;;6.25;93.97
70314;BME280;57725;47.526;18.986;2022-12-07T10:36:50;99642.63;;;6.25;94.17
70314;BME280;57725;47.526;18.986;2022-12-07T10:39:21;99639.19;;;6.25;93.88
70314;BME280;57725;47.526;18.986;2022-12-07T10:42:02;99637.47;;;6.24;94.00
70314;BME280;57725;47.526;18.986;2022-12-07T10:44:29;99647.78;;;6.27;94.13
70314;BME280;57725;47.526;18.986;2022-12-07T11:06:14;99634.84;;;6.25;94.43
70314;BME280;57725;47.526;18.986;2022-12-07T11:09:00;99635.69;;;6.26;93.98
70314;BME280;57725;47.526;18.986;2022-12-07T11:11:38;99626.16;;;6.26;94.39
70314;BME280;57725;47.526;18.986;2022-12-07T11:14:51;99627.91;;;6.26;93.78
70314;BME280;57725;47.526;18.986;2022-12-07T11:18:01;99627.00;;;6.27;94.01
70314;BME280;57725;47.526;18.986;2022-12-07T11:20:38;99631.34;;;6.26;94.18
70314;BME280;57725;47.526;18.986;2022-12-07T11:23:15;99627.00;;;6.27;94.38
70314;BME280;57725;47.526;18.986;2022-12-07T11:28:34;99625.25;;;6.27;94.62
70314;BME280;57725;47.526;18.986;2022-12-07T11:34:00;99620.94;;;6.28;94.46
70314;BME280;57725;47.526;18.986;2022-12-07T11:36:44;99612.31;;;6.26;94.51
70314;BME280;57725;47.526;18.986;2022-12-07T11:39:44;99622.66;;;6.27;94.05
70314;BME280;57725;47.526;18.986;2022-12-07T11:42:24;99621.78;;;6.28;94.41
70314;BME280;57725;47.526;18.986;2022-12-07T11:44:52;99630.44;;;6.27;94.57
70314;BME280;57725;47.526;18.986;2022-12-07T11:55:54;99622.66;;;6.27;94.22
70314;BME280;57725;47.526;18.986;2022-12-07T12:06:41;99600.16;;;6.28;94.06
70314;BME280;57725;47.526;18.986;2022-12-07T12:09:26;99594.97;;;6.28;94.15
70314;BME280;57725;47.526;18.986;2022-12-07T12:17:13;99589.72;;;6.29;94.03
70314;BME280;57725;47.526;18.986;2022-12-07T12:25:52;99575.03;;;6.28;94.61
70314;BME280;57725;47.526;18.986;2022-12-07T12:28:40;99575.03;;;6.28;94.23
70314;BME280;57725;47.526;18.986;2022-12-07T12:31:13;99571.56;;;6.29;94.29
70314;BME280;57725;47.526;18.986;2022-12-07T12:33:51;99573.25;;;6.30;94.32
70314;BME280;57725;47.526;18.986;2022-12-07T12:51:51;99568.91;;;6.31;94.31
70314;BME280;57725;47.526;18.986;2022-12-07T12:54:24;99571.50;;;6.31;94.25
70314;BME280;57725;47.526;18.986;2022-12-07T12:57:14;99577.56;;;6.31;94.44
70314;BME280;57725;47.526;18.986;2022-12-07T13:02:26;99583.66;;;6.30;94.54
70314;BME280;57725;47.526;18.986;2022-12-07T13:15:38;99592.28;;;6.31;94.36
70314;BME280;57725;47.526;18.986;2022-12-07T13:20:49;99583.59;;;6.32;94.17
70314;BME280;57725;47.526;18.986;2022-12-07T13:23:21;99590.53;;;6.31;94.41
70314;BME280;57725;47.526;18.986;2022-12-07T13:25:59;99580.38;;;6.24;94.30
70314;BME280;57725;47.526;18.986;2022-12-07T13:28:33;99589.69;;;6.31;94.41
70314;BME280;57725;47.526;18.986;2022-12-07T13:31:14;99585.34;;;6.31;94.37
70314;BME280;57725;47.526;18.986;2022-12-07T13:33:44;99585.34;;;6.31;94.54
70314;BME280;57725;47.526;18.986;2022-12-07T13:36:18;99590.59;;;6.30;94.22
70314;BME280;57725;47.526;18.986;2022-12-07T13:41:23;99594.84;;;6.32;94.78
70314;BME280;57725;47.526;18.986;2022-12-07T13:43:55;99589.72;;;6.29;94.62
70314;BME280;57725;47.526;18.986;2022-12-07T13:46:49;99599.22;;;6.30;94.21
70314;BME280;57725;47.526;18.986;2022-12-07T13:49:25;99602.63;;;6.32;94.46
70314;BME280;57725;47.526;18.986;2022-12-07T13:51:52;99602.63;;;6.32;94.14
70314;BME280;57725;47.526;18.986;2022-12-07T13:54:18;99606.06;;;6.33;94.00
70314;BME280;57725;47.526;18.986;2022-12-07T13:56:48;99608.72;;;6.31;94.74
70314;BME280;57725;47.526;18.986;2022-12-07T13:59:18;99613.88;;;6.33;94.22
70314;BME280;57725;47.526;18.986;2022-12-07T14:01:45;99613.00;;;6.32;94.41
70314;BME280;57725;47.526;18.986;2022-12-07T14:04:17;99609.59;;;6.30;94.54
70314;BME280;57725;47.526;18.986;2022-12-07T14:06:52;99608.72;;;6.31;94.26
70314;BME280;57725;47.526;18.986;2022-12-07T14:09:23;99606.97;;;6.32;93.92
70314;BME280;57725;47.526;18.986;2022-12-07T14:11:50;99606.94;;;6.33;94.00
70314;BME280;57725;47.526;18.986;2022-12-07T14:14:20;99600.06;;;6.31;94.31
70314;BME280;57725;47.526;18.986;2022-12-07T14:16:58;99609.53;;;6.33;94.38
70314;BME280;57725;47.526;18.986;2022-12-07T14:22:20;99609.53;;;6.33;94.43
70314;BME280;57725;47.526;18.986;2022-12-07T14:24:46;99604.38;;;6.32;94.10
70314;BME280;57725;47.526;18.986;2022-12-07T14:27:23;99607.00;;;6.30;94.09
70314;BME280;57725;47.526;18.986;2022-12-07T14:29:53;99600.06;;;6.31;94.51
70314;BME280;57725;47.526;18.986;2022-12-07T14:35:10;99606.13;;;6.31;94.29
70314;BME280;57725;47.526;18.986;2022-12-07T14:37:37;99604.38;;;6.32;94.73
70314;BME280;57725;47.526;18.986;2022-12-07T14:40:04;99611.31;;;6.31;94.21
70314;BME280;57725;47.526;18.986;2022-12-07T14:42:31;99618.22;;;6.32;94.16
70314;BME280;57725;47.526;18.986;2022-12-07T14:45:00;99621.69;;;6.31;94.32
70314;BME280;57725;47.526;18.986;2022-12-07T14:47:28;99626.88;;;6.31;93.96
70314;BME280;57725;47.526;18.986;2022-12-07T14:49:53;99628.59;;;6.32;94.46
70314;BME280;57725;47.526;18.986;2022-12-07T14:52:25;99626.00;;;6.32;94.13
70314;BME280;57725;47.526;18.986;2022-12-07T14:54:52;99627.69;;;6.33;94.22
70314;BME280;57725;47.526;18.986;2022-12-07T14:57:17;99627.75;;;6.32;94.45
70314;BME280;57725;47.526;18.986;2022-12-07T14:59:45;99635.53;;;6.32;94.09
70314;BME280;57725;47.526;18.986;2022-12-07T15:02:14;99631.19;;;6.32;94.20
70314;BME280;57725;47.526;18.986;2022-12-07T15:04:40;99632.03;;;6.33;94.31
70314;BME280;57725;47.526;18.986;2022-12-07T15:07:18;99638.97;;;6.32;94.58
70314;BME280;57725;47.526;18.986;2022-12-07T15:09:44;99628.63;;;6.31;94.62
70314;BME280;57725;47.526;18.986;2022-12-07T15:12:09;99636.38;;;6.32;94.14
70314;BME280;57725;47.526;18.986;2022-12-07T15:14:37;99633.78;;;6.32;94.15